Verissimo, Brazil
Current Conditions -  °F | °C
As of 4:00 PM on Wednesday 28 Jan 2015 (Local Time) from SBUR Reporting Station
Thunderstorm Thunderstorm  
Wind Chill: 75°   Ceiling: Unl
Heat Index: 75°   Visibility: 6mi
Dew Point: 68°   Wind: 8mph
Humidity: 78%   Direction: 340°NNW
Pressure: NA   Gusts: NA
Location:  19.66°S, 48.31°W
Report Text: SBUR 281800Z 34007KT 9000 3000NW -TSRA SCT040 FEW045CB 24/20 Q1016
Loading
Personal Weather Stations






























Interactive Weather Map New forecast layout! Learn more

10-Day Weather Forecast

Advertisements
Track Severe Weather on mobile